Skip Navigation Links
NOAA logo - Click to go to the NOAA homepage
NOAA's National Weather Service
Alaska Aviation Weather Unit
  NWS logo - Click to go to the NWS homepage
Left Navbar Graphic     03 AKDT = 11 GMT

   
NOAA is celebrating 200 years of science, service, and stewardship. Visit the NOAA 200th celebration Web site to learn more.
USA.gov is the U.S. Government's official Web portal to all Federal, state and local government Web resources and services.
Facebook
NWS on Facebook

AAWU Home :: Display TAF Add Bookmark
TAF PASI 290914Z 2909/3006 15006KT P6SM -SHRA SCT022 OVC035
      WS020/13030KT
     FM291300 12010KT P6SM -SHRA OVC030=
METAR PASI 290553Z 16012KT 10SM -RA SCT023 OVC036 06/02 A2977=

METAR PASI 290653Z 14004KT 10SM -RA BKN047 OVC070 04/02 A2978=

METAR PASI 290753Z 16005KT 10SM -RA BKN022 OVC031 04/03 A2978=

PASI 290802Z 14004KT 9SM -RA SCT022 BKN031 OVC040 05/03 A2978=

SPECI PASI 290802Z 14004KT 9SM -RA SCT022 BKN031 OVC040 05/03 A2978 RMK
     AO2 P0001 T00500033=

METAR PASI 290853Z 16008KT 10SM -RA SCT027 OVC034 04/03 A2978=

PASI 290932Z 13007KT 10SM -RA BKN029 OVC035 05/03 A2978=

SPECI PASI 290932Z 13007KT 10SM -RA BKN029 OVC035 05/03 A2978 RMK AO2
     P0001 T00500028=

METAR PASI 290953Z 14008KT 10SM -RA OVC031 05/02 A2977=


NOAA's National Weather Service
Alaska Aviation Weather Unit
6930 Sand Lake Road
Anchorage, AK 99502-1845
Disclaimer
Credits
Glossary
Privacy Policy
About Us
Career Opportunities
Contact AAWU Internet Services Site last modified: April, 17th 2012